createdAt,value
2019-02-23T00:02:41.432Z,5.00
2019-02-23T00:05:26.745Z,5.05
2019-02-23T00:08:12.444Z,5.06
2019-02-23T00:10:57.792Z,5.10
2019-02-23T00:13:43.544Z,5.14
2019-02-23T00:16:29.709Z,5.13
2019-02-23T00:19:24.527Z,5.23
2019-02-23T00:22:02.520Z,5.19
2019-02-23T00:24:48.257Z,5.18
2019-02-23T00:27:33.492Z,5.18
2019-02-23T00:30:19.208Z,5.19
2019-02-23T00:33:05.439Z,5.17
2019-02-23T00:35:51.029Z,5.21
2019-02-23T00:38:36.868Z,5.15
2019-02-23T00:41:22.420Z,5.10
2019-02-23T00:44:08.391Z,5.13
2019-02-23T00:46:55.199Z,5.09
2019-02-23T00:49:40.741Z,5.02
2019-02-23T00:52:26.612Z,4.98
2019-02-23T00:55:12.344Z,4.94
2019-02-23T00:57:58.306Z,4.92
2019-02-23T01:00:43.790Z,4.92
2019-02-23T01:03:30.080Z,4.89
2019-02-23T01:06:15.468Z,4.91
2019-02-23T01:09:00.881Z,4.83
2019-02-23T01:11:46.702Z,4.79
2019-02-23T01:14:32.169Z,4.82
2019-02-23T01:17:17.613Z,4.90
2019-02-23T01:20:03.320Z,4.81
2019-02-23T01:22:48.859Z,4.78
2019-02-23T01:25:34.455Z,4.88
2019-02-23T01:28:20.896Z,4.92
2019-02-23T01:31:06.429Z,4.85
2019-02-23T01:33:51.765Z,4.82
2019-02-23T01:36:38.214Z,4.85
2019-02-23T01:39:23.836Z,4.88
2019-02-23T01:42:09.611Z,4.84
2019-02-23T01:44:55.429Z,4.79
2019-02-23T01:47:40.713Z,4.83
2019-02-23T01:50:26.181Z,4.80
2019-02-23T01:53:12.445Z,4.80
2019-02-23T01:55:57.829Z,4.77
2019-02-23T01:58:43.336Z,4.72
2019-02-23T02:01:29.167Z,4.74
2019-02-23T02:04:15.109Z,4.75
2019-02-23T02:07:00.450Z,4.81
2019-02-23T02:09:46.433Z,4.72
2019-02-23T02:12:31.941Z,4.69
2019-02-23T02:15:17.798Z,4.74
2019-02-23T02:18:03.616Z,4.72
2019-02-23T02:20:49.218Z,4.69
2019-02-23T02:23:34.653Z,4.64
2019-02-23T02:26:20.553Z,4.61
2019-02-23T02:29:06.519Z,4.57
2019-02-23T02:31:52.276Z,4.52
2019-02-23T02:34:38.040Z,4.45
2019-02-23T02:37:23.459Z,4.43
2019-02-23T02:40:09.004Z,4.41
2019-02-23T02:42:55.157Z,4.39
2019-02-23T02:45:40.598Z,4.34
2019-02-23T02:48:26.091Z,4.32
2019-02-23T02:51:11.840Z,4.33
2019-02-23T02:53:57.544Z,4.25
2019-02-23T02:56:43.494Z,4.19
2019-02-23T02:59:29.366Z,4.12
2019-02-23T03:02:14.713Z,4.09
2019-02-23T03:05:00.228Z,4.06
2019-02-23T03:07:48.803Z,4.00
2019-02-23T03:10:34.397Z,3.94
2019-02-23T03:13:19.835Z,3.94
2019-02-23T03:16:06.145Z,3.87
2019-02-23T03:18:51.411Z,3.79
2019-02-23T03:21:37.203Z,3.79
2019-02-23T03:24:22.991Z,3.72
2019-02-23T03:27:08.309Z,3.64
2019-02-23T03:29:53.649Z,3.64
2019-02-23T03:32:39.519Z,3.61
2019-02-23T03:35:24.969Z,3.58
2019-02-23T03:38:10.425Z,3.60
2019-02-23T03:40:56.231Z,3.54
2019-02-23T03:43:41.581Z,3.44
2019-02-23T03:46:27.617Z,3.40
2019-02-23T03:49:13.522Z,3.32
2019-02-23T03:51:58.899Z,3.25
2019-02-23T03:54:44.666Z,3.20
2019-02-23T03:57:30.399Z,3.27
2019-02-23T04:00:16.438Z,3.10
2019-02-23T04:03:01.921Z,3.07
2019-02-23T04:05:47.779Z,3.03
2019-02-23T04:08:33.165Z,2.97
2019-02-23T04:11:18.813Z,2.95
2019-02-23T04:14:04.806Z,2.94
2019-02-23T04:16:50.524Z,2.87
2019-02-23T04:19:36.486Z,2.84
2019-02-23T04:22:21.830Z,2.75
2019-02-23T04:25:07.591Z,2.75
2019-02-23T04:27:53.222Z,2.72
2019-02-23T04:30:38.958Z,2.67
2019-02-23T04:33:24.603Z,2.65
2019-02-23T04:36:09.921Z,2.65
2019-02-23T04:38:55.906Z,2.63
2019-02-23T04:41:41.320Z,2.56
2019-02-23T04:44:26.771Z,2.53
2019-02-23T04:47:12.373Z,2.56
2019-02-23T04:49:58.028Z,2.56
2019-02-23T04:52:43.999Z,2.53
2019-02-23T04:55:30.145Z,2.57
2019-02-23T04:58:15.634Z,2.49
2019-02-23T05:01:01.217Z,2.55
2019-02-23T05:03:46.981Z,2.53
2019-02-23T05:06:32.484Z,2.39
2019-02-23T05:09:17.875Z,2.35
2019-02-23T05:12:03.928Z,2.35
2019-02-23T05:14:49.269Z,2.31
2019-02-23T05:17:34.897Z,2.25
2019-02-23T05:20:20.691Z,2.19
2019-02-23T05:23:06.207Z,2.15
2019-02-23T05:25:52.179Z,2.16
2019-02-23T05:28:38.071Z,2.17
2019-02-23T05:31:23.964Z,2.04
2019-02-23T05:34:10.069Z,1.99
2019-02-23T05:36:55.846Z,1.99
2019-02-23T05:39:41.230Z,1.96
2019-02-23T05:42:27.199Z,1.86
2019-02-23T05:45:13.079Z,1.92
2019-02-23T05:47:58.494Z,1.90
2019-02-23T05:50:43.969Z,1.90
2019-02-23T05:53:30.295Z,1.82
2019-02-23T05:56:16.420Z,1.85
2019-02-23T05:59:02.306Z,1.84
2019-02-23T06:01:48.135Z,1.84
2019-02-23T06:04:33.483Z,1.84
2019-02-23T06:07:18.839Z,1.74
2019-02-23T06:10:06.735Z,1.69
2019-02-23T06:12:52.205Z,1.69
2019-02-23T06:15:37.576Z,1.69
2019-02-23T06:18:23.463Z,1.70
2019-02-23T06:21:08.832Z,1.67
2019-02-23T06:23:54.380Z,1.67
2019-02-23T06:26:40.555Z,1.67
2019-02-23T06:29:26.238Z,1.68
2019-02-23T06:32:11.679Z,1.66
2019-02-23T06:34:57.583Z,1.66
2019-02-23T06:37:43.094Z,1.65
2019-02-23T06:40:28.707Z,1.65
2019-02-23T06:43:14.395Z,1.64
2019-02-23T06:45:59.912Z,1.70
2019-02-23T06:48:45.381Z,1.64
2019-02-23T06:51:31.403Z,1.64
2019-02-23T06:54:17.234Z,1.66
2019-02-23T06:57:02.859Z,1.66
2019-02-23T06:59:48.615Z,1.71
2019-02-23T07:02:34.011Z,1.71
2019-02-23T07:05:20.068Z,1.82
2019-02-23T07:08:06.080Z,1.82
2019-02-23T07:10:51.873Z,1.79
2019-02-23T07:13:38.188Z,1.99
2019-02-23T07:16:24.063Z,2.05
2019-02-23T07:19:09.531Z,2.08
2019-02-23T07:21:55.153Z,2.15
2019-02-23T07:24:40.714Z,2.15
2019-02-23T07:27:26.628Z,2.11
2019-02-23T07:30:12.108Z,2.25
2019-02-23T07:32:57.895Z,2.25
2019-02-23T07:35:44.447Z,2.30
2019-02-23T07:38:29.835Z,2.33
2019-02-23T07:41:15.643Z,2.53
2019-02-23T07:44:03.377Z,2.48
2019-02-23T07:46:48.869Z,2.70
2019-02-23T07:49:34.860Z,2.73
2019-02-23T07:52:26.851Z,2.73
2019-02-23T07:55:12.819Z,2.92
2019-02-23T07:57:58.607Z,2.96
2019-02-23T08:00:44.524Z,2.85
2019-02-23T08:03:30.349Z,3.20
2019-02-23T08:06:16.166Z,3.05
2019-02-23T08:09:02.112Z,3.11
2019-02-23T08:11:47.439Z,3.54
2019-02-23T08:14:33.274Z,3.64
2019-02-23T08:17:21.152Z,3.64
2019-02-23T08:20:07.503Z,3.64
2019-02-23T08:22:53.296Z,3.65
2019-02-23T08:25:39.607Z,4.03
2019-02-23T08:28:25.049Z,4.15
2019-02-23T08:31:10.505Z,4.44
2019-02-23T08:33:56.623Z,4.23
2019-02-23T08:36:42.560Z,4.83
2019-02-23T08:39:28.808Z,5.11
2019-02-23T08:42:15.080Z,5.08
2019-02-23T08:45:00.540Z,4.80
2019-02-23T08:47:45.988Z,4.60
2019-02-23T08:50:31.988Z,4.72
2019-02-23T08:53:17.476Z,5.04
2019-02-23T08:56:09.287Z,5.58
2019-02-23T08:58:55.199Z,5.46
2019-02-23T09:01:41.779Z,5.26
2019-02-23T09:04:27.603Z,5.15
2019-02-23T09:07:13.108Z,5.75
2019-02-23T09:09:59.308Z,5.57
2019-02-23T09:12:45.263Z,5.31
2019-02-23T09:15:31.292Z,5.39
2019-02-23T09:18:18.808Z,5.41
2019-02-23T09:21:04.615Z,5.68
2019-02-23T09:23:50.588Z,5.66
2019-02-23T09:26:36.732Z,5.96
2019-02-23T09:29:22.827Z,5.74
2019-02-23T09:32:08.576Z,5.73
2019-02-23T09:34:53.950Z,5.95
2019-02-23T09:37:39.879Z,5.56
2019-02-23T09:40:25.899Z,5.10
2019-02-23T09:43:11.396Z,5.54
2019-02-23T09:46:01.692Z,6.25
2019-02-23T09:48:47.382Z,6.28
2019-02-23T09:51:33.395Z,6.12
2019-02-23T09:54:19.287Z,6.51
2019-02-23T09:57:04.628Z,7.16
2019-02-23T09:59:51.418Z,6.72
2019-02-23T10:02:38.716Z,6.57
2019-02-23T10:05:24.356Z,6.59
2019-02-23T10:08:10.288Z,6.57
2019-02-23T10:10:57.647Z,6.68
2019-02-23T10:13:43.504Z,7.32
2019-02-23T10:16:28.918Z,6.78
2019-02-23T10:19:17.506Z,7.02
2019-02-23T10:22:03.742Z,7.44
2019-02-23T10:24:49.716Z,6.96
2019-02-23T10:27:36.084Z,7.63
2019-02-23T10:30:21.861Z,7.55
2019-02-23T10:33:07.555Z,7.67
2019-02-23T10:35:54.956Z,7.33
2019-02-23T10:38:40.816Z,7.24
2019-02-23T10:41:26.936Z,7.53
2019-02-23T10:44:12.368Z,7.74
2019-02-23T10:46:57.736Z,8.09
2019-02-23T10:49:44.369Z,8.03
2019-02-23T10:52:29.905Z,8.32
2019-02-23T10:55:15.824Z,8.05
2019-02-23T10:58:02.161Z,7.83
2019-02-23T11:00:48.365Z,8.18
2019-02-23T11:03:34.103Z,8.02
2019-02-23T11:06:20.055Z,7.82
2019-02-23T11:09:09.875Z,7.80
2019-02-23T11:11:56.228Z,8.39
2019-02-23T11:14:42.832Z,8.36
2019-02-23T11:17:29.232Z,8.64
2019-02-23T11:20:16.069Z,8.38
2019-02-23T11:23:01.891Z,8.05
2019-02-23T11:25:47.709Z,8.22
2019-02-23T11:28:33.582Z,8.66
2019-02-23T11:31:19.681Z,8.21
2019-02-23T11:34:05.292Z,8.95
2019-02-23T11:36:51.203Z,8.91
2019-02-23T11:39:37.318Z,8.62
2019-02-23T11:42:22.729Z,9.00
2019-02-23T11:45:10.616Z,9.31
2019-02-23T11:47:57.121Z,9.05
2019-02-23T11:50:42.843Z,9.74
2019-02-23T11:53:29.132Z,9.48
2019-02-23T11:56:17.260Z,9.39
2019-02-23T11:59:03.192Z,10.54
2019-02-23T12:01:49.416Z,9.30
2019-02-23T12:04:35.464Z,9.65
2019-02-23T12:07:21.383Z,9.95
2019-02-23T12:10:10.385Z,10.75
2019-02-23T12:12:58.057Z,9.53
2019-02-23T12:15:45.737Z,9.44
2019-02-23T12:18:31.908Z,9.62
2019-02-23T12:21:17.540Z,10.40
2019-02-23T12:24:05.978Z,11.17
2019-02-23T12:26:52.709Z,10.31
2019-02-23T12:29:38.484Z,10.05
2019-02-23T12:32:24.776Z,11.03
2019-02-23T12:35:12.681Z,10.45
2019-02-23T12:37:58.768Z,10.71
2019-02-23T12:40:44.707Z,11.33
2019-02-23T12:43:32.342Z,10.91
2019-02-23T12:46:18.292Z,9.78
2019-02-23T12:49:06.023Z,9.88
2019-02-23T12:51:52.153Z,10.49
2019-02-23T12:54:37.515Z,10.63
2019-02-23T12:57:23.417Z,10.44
2019-02-23T13:00:09.945Z,10.32
2019-02-23T13:02:56.043Z,10.40
2019-02-23T13:05:41.825Z,10.97
2019-02-23T13:08:51.677Z,10.35
2019-02-23T13:11:38.897Z,11.06
2019-02-23T13:14:59.705Z,11.22
2019-02-23T13:18:35.237Z,10.40
2019-02-23T13:21:35.608Z,10.90
2019-02-23T13:25:15.461Z,11.68
2019-02-23T13:29:01.621Z,11.59
2019-02-23T13:32:19.949Z,11.42
2019-02-23T13:35:42.350Z,11.24
2019-02-23T13:39:18.716Z,11.78
2019-02-23T13:42:49.369Z,11.42
2019-02-23T13:46:32.992Z,13.29
2019-02-23T13:49:42.909Z,11.35
2019-02-23T13:53:02.802Z,12.05
2019-02-23T13:56:43.652Z,11.34
2019-02-23T13:59:52.498Z,11.10
2019-02-23T14:03:33.617Z,12.29
2019-02-23T14:07:04.052Z,11.33
2019-02-23T14:10:35.966Z,12.22
2019-02-23T14:13:51.109Z,11.19
2019-02-23T14:17:12.808Z,10.83
2019-02-23T14:20:23.669Z,11.44
2019-02-23T14:23:39.653Z,11.87
2019-02-23T14:27:03.580Z,12.68
2019-02-23T14:30:35.380Z,11.64
2019-02-23T14:34:07.702Z,11.01
2019-02-23T14:37:19.476Z,12.01
2019-02-23T14:40:43.808Z,11.57
2019-02-23T14:44:20.303Z,12.49
2019-02-23T14:47:29.726Z,12.31
2019-02-23T14:51:06.938Z,11.55
2019-02-23T14:54:15.396Z,11.94
2019-02-23T14:57:55.901Z,11.14
2019-02-23T15:01:20.069Z,11.99
2019-02-23T15:04:47.786Z,11.58
2019-02-23T15:08:16.915Z,11.21
2019-02-23T15:11:28.557Z,11.13
2019-02-23T15:15:07.002Z,11.31
2019-02-23T15:18:28.701Z,11.35
2019-02-23T15:21:33.228Z,11.22
2019-02-23T15:24:42.953Z,11.04
2019-02-23T15:27:57.225Z,10.96
2019-02-23T15:31:00.400Z,10.94
2019-02-23T15:34:41.476Z,11.07
2019-02-23T15:37:56.017Z,11.01
2019-02-23T15:40:51.938Z,11.08
2019-02-23T15:44:09.565Z,11.04
2019-02-23T15:47:40.601Z,10.99
2019-02-23T15:50:27.532Z,10.97
2019-02-23T15:53:13.792Z,10.89
2019-02-23T15:55:59.923Z,10.78
2019-02-23T15:58:46.068Z,10.82
2019-02-23T16:01:32.426Z,10.73
2019-02-23T16:04:21.402Z,10.64
2019-02-23T16:07:07.326Z,10.64
2019-02-23T16:09:53.567Z,10.58
2019-02-23T16:12:39.450Z,10.50
2019-02-23T16:15:25.496Z,10.37
2019-02-23T16:18:11.854Z,10.37
2019-02-23T16:20:57.818Z,10.26
2019-02-23T16:23:44.786Z,10.18
2019-02-23T16:26:30.542Z,10.11
2019-02-23T16:29:16.707Z,10.02
2019-02-23T16:32:02.953Z,9.98
2019-02-23T16:34:49.806Z,9.92
2019-02-23T16:37:35.708Z,9.86
2019-02-23T16:40:22.104Z,9.82
2019-02-23T16:43:08.074Z,9.68
2019-02-23T16:45:53.922Z,9.64
2019-02-23T16:48:40.439Z,9.63
2019-02-23T16:51:27.058Z,9.55
2019-02-23T16:54:13.591Z,9.46
2019-02-23T16:57:06.810Z,9.33
2019-02-23T16:59:52.993Z,9.26
2019-02-23T17:02:39.438Z,9.23
2019-02-23T17:05:25.923Z,9.23
2019-02-23T17:08:12.095Z,9.13
2019-02-23T17:10:58.642Z,9.12
2019-02-23T17:13:44.694Z,9.03
2019-02-23T17:16:30.729Z,9.02
2019-02-23T17:19:16.823Z,9.07
2019-02-23T17:22:02.404Z,8.94
2019-02-23T17:24:48.814Z,8.96
2019-02-23T17:27:37.546Z,8.85
2019-02-23T17:30:23.565Z,8.80
2019-02-23T17:33:12.130Z,8.70
2019-02-23T17:35:58.199Z,8.65
2019-02-23T17:38:44.886Z,8.59
2019-02-23T17:41:31.741Z,8.56
2019-02-23T17:44:17.766Z,8.55
2019-02-23T17:47:03.894Z,8.43
2019-02-23T17:49:50.151Z,8.34
2019-02-23T17:52:36.214Z,8.29
2019-02-23T17:55:21.974Z,8.29
2019-02-23T17:58:08.431Z,8.21
2019-02-23T18:00:57.082Z,8.19
2019-02-23T18:03:43.149Z,8.09
2019-02-23T18:06:29.030Z,7.98
2019-02-23T18:09:14.864Z,7.90
2019-02-23T18:12:00.702Z,7.86
2019-02-23T18:14:47.203Z,7.82
2019-02-23T18:17:34.734Z,7.78
2019-02-23T18:20:20.814Z,7.68
2019-02-23T18:23:07.321Z,7.60
2019-02-23T18:25:53.277Z,7.51
2019-02-23T18:28:39.558Z,7.43
2019-02-23T18:31:25.683Z,7.44
2019-02-23T18:34:11.638Z,7.37
2019-02-23T18:36:57.830Z,7.31
2019-02-23T18:39:43.354Z,7.22
2019-02-23T18:42:29.376Z,7.18
2019-02-23T18:45:15.884Z,7.10
2019-02-23T18:48:01.598Z,7.07
2019-02-23T18:50:49.355Z,7.07
2019-02-23T18:53:35.989Z,7.02
2019-02-23T18:56:29.216Z,7.03
2019-02-23T18:59:09.959Z,6.96
2019-02-23T19:01:57.358Z,6.96
2019-02-23T19:04:48.895Z,6.92
2019-02-23T19:07:36.312Z,6.84
2019-02-23T19:10:22.544Z,6.82
2019-02-23T19:13:08.558Z,6.79
2019-02-23T19:15:54.470Z,6.75
2019-02-23T19:18:40.801Z,6.66
2019-02-23T19:21:26.709Z,6.67
2019-02-23T19:24:12.143Z,6.68
2019-02-23T19:26:57.659Z,6.55
2019-02-23T19:29:43.385Z,6.50
2019-02-23T19:32:29.590Z,6.52
2019-02-23T19:35:16.518Z,6.40
2019-02-23T19:38:02.306Z,6.40
2019-02-23T19:40:48.707Z,6.35
2019-02-23T19:43:35.042Z,6.27
2019-02-23T19:46:22.313Z,6.25
2019-02-23T19:49:09.930Z,6.19
2019-02-23T19:51:56.696Z,6.21
2019-02-23T19:54:43.031Z,6.19
2019-02-23T19:57:28.958Z,6.16
2019-02-23T20:00:15.314Z,6.11
2019-02-23T20:03:01.048Z,6.10
2019-02-23T20:05:46.562Z,6.13
2019-02-23T20:08:32.979Z,6.09
2019-02-23T20:11:19.215Z,5.96
2019-02-23T20:14:05.226Z,5.94
2019-02-23T20:16:54.607Z,5.93
2019-02-23T20:19:40.668Z,5.89
2019-02-23T20:22:26.396Z,5.88
2019-02-23T20:25:12.901Z,5.81
2019-02-23T20:27:59.503Z,5.71
2019-02-23T20:30:46.270Z,5.71
2019-02-23T20:33:33.440Z,5.76
2019-02-23T20:36:20.070Z,5.72
2019-02-23T20:39:07.565Z,5.72
2019-02-23T20:41:54.277Z,5.69
2019-02-23T20:44:41.245Z,5.59
2019-02-23T20:47:26.855Z,5.59
2019-02-23T20:50:13.364Z,5.54
2019-02-23T20:52:59.205Z,5.46
2019-02-23T20:55:45.415Z,5.32
2019-02-23T20:58:31.403Z,5.33
2019-02-23T21:01:17.538Z,5.39
2019-02-23T21:04:03.365Z,5.38
2019-02-23T21:06:49.995Z,5.37
2019-02-23T21:09:35.976Z,5.34
2019-02-23T21:12:21.933Z,5.35
2019-02-23T21:15:08.624Z,5.28
2019-02-23T21:17:54.368Z,5.27
2019-02-23T21:20:40.108Z,5.18
2019-02-23T21:23:26.308Z,5.21
2019-02-23T21:26:11.877Z,5.13
2019-02-23T21:28:57.911Z,5.17
2019-02-23T21:31:44.639Z,5.13
2019-02-23T21:34:30.941Z,5.13
2019-02-23T21:37:16.898Z,5.10
2019-02-23T21:40:03.436Z,5.08
2019-02-23T21:42:49.267Z,4.99
2019-02-23T21:45:35.153Z,5.02
2019-02-23T21:48:21.667Z,4.98
2019-02-23T21:51:07.876Z,4.93
2019-02-23T21:53:53.905Z,4.96
2019-02-23T21:56:40.029Z,4.94
2019-02-23T21:59:26.045Z,4.81
2019-02-23T22:02:14.224Z,4.79
2019-02-23T22:05:00.747Z,4.78
2019-02-23T22:07:46.796Z,4.76
2019-02-23T22:10:32.780Z,4.77
2019-02-23T22:13:19.200Z,4.70
2019-02-23T22:16:05.493Z,4.68
2019-02-23T22:18:51.253Z,4.64
2019-02-23T22:21:37.526Z,4.65
2019-02-23T22:24:23.171Z,4.64
2019-02-23T22:27:08.785Z,4.76
2019-02-23T22:29:55.067Z,4.65
2019-02-23T22:32:41.086Z,4.67
2019-02-23T22:35:26.987Z,4.73
2019-02-23T22:38:13.325Z,4.75
2019-02-23T22:40:59.030Z,4.81
2019-02-23T22:43:45.148Z,4.81
2019-02-23T22:46:31.751Z,4.80
2019-02-23T22:49:17.284Z,4.78
2019-02-23T22:52:03.364Z,4.78
2019-02-23T22:54:49.671Z,4.83
2019-02-23T22:57:40.574Z,4.77
2019-02-23T23:00:27.506Z,4.82
2019-02-23T23:03:13.673Z,4.68
2019-02-23T23:05:59.636Z,4.64
2019-02-23T23:08:46.326Z,4.54
2019-02-23T23:11:33.077Z,4.44
2019-02-23T23:14:19.028Z,4.34
2019-02-23T23:17:04.965Z,4.29
2019-02-23T23:19:51.355Z,4.31
2019-02-23T23:22:37.389Z,4.21
2019-02-23T23:25:23.392Z,4.18
2019-02-23T23:28:09.340Z,4.27
2019-02-23T23:30:55.664Z,4.15
2019-02-23T23:33:41.693Z,4.23
2019-02-23T23:36:28.048Z,4.32
2019-02-23T23:39:14.092Z,4.36
2019-02-23T23:42:00.077Z,4.34
2019-02-23T23:44:46.368Z,4.30
2019-02-23T23:47:32.660Z,4.22
2019-02-23T23:50:18.401Z,4.20
2019-02-23T23:53:04.961Z,4.09
2019-02-23T23:55:50.747Z,4.09
2019-02-23T23:58:36.316Z,4.11
